sensor_id;sensor_type;location;lat;lon;timestamp;pressure;altitude;pressure_sealevel;temperature;humidity
72612;BME280;60655;52.182;4.474;2023-04-29T00:00:05;101522.44;;;9.49;88.74
72612;BME280;60655;52.182;4.474;2023-04-29T00:02:06;101528.88;;;9.40;89.39
72612;BME280;60655;52.182;4.474;2023-04-29T00:04:07;101520.53;;;9.43;88.52
72612;BME280;60655;52.182;4.474;2023-04-29T00:06:09;101515.75;;;9.32;89.56
72612;BME280;60655;52.182;4.474;2023-04-29T00:08:11;101522.56;;;9.41;89.51
72612;BME280;60655;52.182;4.474;2023-04-29T00:10:12;101516.06;;;9.43;88.79
72612;BME280;60655;52.182;4.474;2023-04-29T00:12:14;101522.00;;;9.45;88.89
72612;BME280;60655;52.182;4.474;2023-04-29T00:14:15;101533.53;;;9.38;88.81
72612;BME280;60655;52.182;4.474;2023-04-29T00:16:16;101535.50;;;9.29;89.59
72612;BME280;60655;52.182;4.474;2023-04-29T00:18:17;101532.34;;;9.40;89.36
72612;BME280;60655;52.182;4.474;2023-04-29T00:20:18;101539.53;;;9.46;89.68
72612;BME280;60655;52.182;4.474;2023-04-29T00:22:19;101534.91;;;9.55;89.24
72612;BME280;60655;52.182;4.474;2023-04-29T00:24:22;101537.56;;;9.55;89.30
72612;BME280;60655;52.182;4.474;2023-04-29T00:26:23;101539.81;;;9.58;89.26
72612;BME280;60655;52.182;4.474;2023-04-29T00:28:24;101543.88;;;9.54;89.66
72612;BME280;60655;52.182;4.474;2023-04-29T00:30:25;101550.41;;;9.52;89.63
72612;BME280;60655;52.182;4.474;2023-04-29T00:32:26;101552.22;;;9.51;89.46
72612;BME280;60655;52.182;4.474;2023-04-29T00:34:27;101544.41;;;9.43;89.82
72612;BME280;60655;52.182;4.474;2023-04-29T00:36:28;101558.03;;;9.40;91.04
72612;BME280;60655;52.182;4.474;2023-04-29T00:38:29;101555.50;;;9.53;90.51
72612;BME280;60655;52.182;4.474;2023-04-29T00:40:29;101548.84;;;9.64;89.59
72612;BME280;60655;52.182;4.474;2023-04-29T00:42:30;101553.47;;;9.55;89.84
72612;BME280;60655;52.182;4.474;2023-04-29T00:44:34;101556.56;;;9.59;89.20
72612;BME280;60655;52.182;4.474;2023-04-29T00:46:35;101558.00;;;9.61;89.41
72612;BME280;60655;52.182;4.474;2023-04-29T00:48:36;101547.84;;;9.65;88.76
72612;BME280;60655;52.182;4.474;2023-04-29T00:50:38;101554.25;;;9.49;89.92
72612;BME280;60655;52.182;4.474;2023-04-29T00:52:39;101553.91;;;9.59;90.33
72612;BME280;60655;52.182;4.474;2023-04-29T00:54:40;101558.31;;;9.73;90.19
72612;BME280;60655;52.182;4.474;2023-04-29T00:56:44;101550.34;;;9.73;88.93
72612;BME280;60655;52.182;4.474;2023-04-29T00:58:45;101556.03;;;9.70;89.02
72612;BME280;60655;52.182;4.474;2023-04-29T01:00:49;101557.25;;;9.67;89.51
72612;BME280;60655;52.182;4.474;2023-04-29T01:02:51;101558.59;;;9.57;90.67
72612;BME280;60655;52.182;4.474;2023-04-29T01:04:53;101559.13;;;9.73;90.13
72612;BME280;60655;52.182;4.474;2023-04-29T01:11:39;101561.09;;;9.65;90.41
72612;BME280;60655;52.182;4.474;2023-04-29T01:13:48;101561.78;;;9.73;90.15
72612;BME280;60655;52.182;4.474;2023-04-29T01:16:03;101558.94;;;9.75;90.00
72612;BME280;60655;52.182;4.474;2023-04-29T01:20:14;101561.94;;;9.65;90.24
72612;BME280;60655;52.182;4.474;2023-04-29T01:22:16;101572.72;;;9.64;90.26
72612;BME280;60655;52.182;4.474;2023-04-29T01:24:18;101562.13;;;9.64;90.54
72612;BME280;60655;52.182;4.474;2023-04-29T01:26:19;101578.03;;;9.64;90.64
72612;BME280;60655;52.182;4.474;2023-04-29T01:31:17;101577.69;;;9.45;91.53
72612;BME280;60655;52.182;4.474;2023-04-29T01:35:44;101575.31;;;9.57;90.75
72612;BME280;60655;52.182;4.474;2023-04-29T01:38:04;101567.59;;;9.62;90.48
72612;BME280;60655;52.182;4.474;2023-04-29T01:40:16;101578.41;;;9.61;90.09
72612;BME280;60655;52.182;4.474;2023-04-29T01:42:23;101579.59;;;9.52;90.68
72612;BME280;60655;52.182;4.474;2023-04-29T01:44:28;101578.31;;;9.47;90.05
72612;BME280;60655;52.182;4.474;2023-04-29T01:46:31;101575.41;;;9.42;90.84
72612;BME280;60655;52.182;4.474;2023-04-29T01:48:32;101577.94;;;9.51;89.54
72612;BME280;60655;52.182;4.474;2023-04-29T01:50:33;101584.44;;;9.48;88.59
72612;BME280;60655;52.182;4.474;2023-04-29T01:52:34;101587.72;;;9.50;88.33
72612;BME280;60655;52.182;4.474;2023-04-29T01:54:36;101576.78;;;9.60;87.97
72612;BME280;60655;52.182;4.474;2023-04-29T01:56:37;101582.00;;;9.53;87.54
72612;BME280;60655;52.182;4.474;2023-04-29T01:58:38;101589.97;;;9.53;87.77
72612;BME280;60655;52.182;4.474;2023-04-29T02:00:39;101590.34;;;9.71;86.94
72612;BME280;60655;52.182;4.474;2023-04-29T02:02:41;101584.91;;;9.79;87.56
72612;BME280;60655;52.182;4.474;2023-04-29T02:04:42;101582.44;;;9.78;87.85
72612;BME280;60655;52.182;4.474;2023-04-29T02:06:43;101588.25;;;9.67;87.70
72612;BME280;60655;52.182;4.474;2023-04-29T02:08:44;101596.34;;;9.59;89.01
72612;BME280;60655;52.182;4.474;2023-04-29T02:10:55;101591.16;;;9.72;86.96
72612;BME280;60655;52.182;4.474;2023-04-29T02:12:56;101595.03;;;9.69;86.95
72612;BME280;60655;52.182;4.474;2023-04-29T02:14:57;101599.38;;;9.77;86.41
72612;BME280;60655;52.182;4.474;2023-04-29T02:16:59;101594.44;;;9.74;86.97
72612;BME280;60655;52.182;4.474;2023-04-29T02:19:00;101597.94;;;9.74;86.65
72612;BME280;60655;52.182;4.474;2023-04-29T02:21:01;101601.97;;;9.70;86.75
72612;BME280;60655;52.182;4.474;2023-04-29T02:23:02;101616.94;;;9.78;86.73
72612;BME280;60655;52.182;4.474;2023-04-29T02:25:04;101612.41;;;9.72;87.06
72612;BME280;60655;52.182;4.474;2023-04-29T02:27:06;101612.72;;;9.90;87.31
72612;BME280;60655;52.182;4.474;2023-04-29T02:29:07;101616.22;;;9.91;85.42
72612;BME280;60655;52.182;4.474;2023-04-29T02:31:08;101615.09;;;9.78;86.70
72612;BME280;60655;52.182;4.474;2023-04-29T02:33:09;101617.88;;;9.70;86.78
72612;BME280;60655;52.182;4.474;2023-04-29T02:35:10;101615.59;;;9.89;86.81
72612;BME280;60655;52.182;4.474;2023-04-29T02:37:12;101617.25;;;9.68;85.86
72612;BME280;60655;52.182;4.474;2023-04-29T02:39:13;101617.94;;;9.77;86.87
72612;BME280;60655;52.182;4.474;2023-04-29T02:41:17;101626.38;;;9.87;84.75
72612;BME280;60655;52.182;4.474;2023-04-29T02:43:17;101627.31;;;9.73;85.78
72612;BME280;60655;52.182;4.474;2023-04-29T02:45:19;101628.19;;;9.80;84.99
72612;BME280;60655;52.182;4.474;2023-04-29T02:47:19;101616.94;;;9.78;84.61
72612;BME280;60655;52.182;4.474;2023-04-29T02:49:21;101642.34;;;9.66;84.87
72612;BME280;60655;52.182;4.474;2023-04-29T02:51:22;101640.63;;;9.58;85.51
72612;BME280;60655;52.182;4.474;2023-04-29T02:53:23;101639.06;;;9.64;85.58
72612;BME280;60655;52.182;4.474;2023-04-29T02:55:24;101635.34;;;9.86;84.95
72612;BME280;60655;52.182;4.474;2023-04-29T02:57:25;101641.53;;;9.93;84.75
72612;BME280;60655;52.182;4.474;2023-04-29T02:59:25;101644.72;;;9.82;84.86
72612;BME280;60655;52.182;4.474;2023-04-29T03:01:27;101642.31;;;9.87;85.14
72612;BME280;60655;52.182;4.474;2023-04-29T03:03:28;101648.38;;;10.02;84.89
72612;BME280;60655;52.182;4.474;2023-04-29T03:05:29;101654.00;;;9.93;84.68
72612;BME280;60655;52.182;4.474;2023-04-29T03:07:31;101649.75;;;9.98;85.00
72612;BME280;60655;52.182;4.474;2023-04-29T03:09:32;101658.28;;;9.94;85.14
72612;BME280;60655;52.182;4.474;2023-04-29T03:11:33;101663.50;;;9.80;86.31
72612;BME280;60655;52.182;4.474;2023-04-29T03:13:35;101664.81;;;9.91;85.83
72612;BME280;60655;52.182;4.474;2023-04-29T03:15:36;101658.41;;;9.86;85.92
72612;BME280;60655;52.182;4.474;2023-04-29T03:17:36;101660.59;;;9.75;86.94
72612;BME280;60655;52.182;4.474;2023-04-29T03:19:37;101659.88;;;9.88;86.82
72612;BME280;60655;52.182;4.474;2023-04-29T03:21:38;101666.13;;;10.02;86.33
72612;BME280;60655;52.182;4.474;2023-04-29T03:23:39;101660.25;;;10.06;86.06
72612;BME280;60655;52.182;4.474;2023-04-29T03:25:40;101654.81;;;9.93;86.01
72612;BME280;60655;52.182;4.474;2023-04-29T03:27:41;101669.66;;;9.88;86.77
72612;BME280;60655;52.182;4.474;2023-04-29T03:29:42;101669.66;;;9.88;86.64
72612;BME280;60655;52.182;4.474;2023-04-29T03:31:43;101664.75;;;9.85;87.58
72612;BME280;60655;52.182;4.474;2023-04-29T03:33:44;101665.19;;;9.88;87.16
72612;BME280;60655;52.182;4.474;2023-04-29T03:35:45;101672.66;;;9.78;87.96
72612;BME280;60655;52.182;4.474;2023-04-29T03:37:46;101668.22;;;9.85;87.78
72612;BME280;60655;52.182;4.474;2023-04-29T03:39:47;101674.09;;;10.02;86.88
72612;BME280;60655;52.182;4.474;2023-04-29T03:41:48;101670.88;;;9.85;87.62
72612;BME280;60655;52.182;4.474;2023-04-29T03:43:49;101669.03;;;9.86;87.92
72612;BME280;60655;52.182;4.474;2023-04-29T03:45:51;101674.34;;;9.86;88.04
72612;BME280;60655;52.182;4.474;2023-04-29T03:47:52;101672.00;;;9.97;87.60
72612;BME280;60655;52.182;4.474;2023-04-29T03:49:54;101674.28;;;10.00;87.62
72612;BME280;60655;52.182;4.474;2023-04-29T03:51:55;101677.31;;;9.97;88.10
72612;BME280;60655;52.182;4.474;2023-04-29T03:53:56;101676.13;;;9.78;89.04
72612;BME280;60655;52.182;4.474;2023-04-29T03:55:57;101679.84;;;9.84;89.85
72612;BME280;60655;52.182;4.474;2023-04-29T03:57:58;101671.88;;;9.84;89.64
72612;BME280;60655;52.182;4.474;2023-04-29T03:59:59;101686.59;;;10.08;88.73
72612;BME280;60655;52.182;4.474;2023-04-29T04:02:00;101682.06;;;10.02;89.02
72612;BME280;60655;52.182;4.474;2023-04-29T04:04:01;101686.72;;;10.00;89.73
72612;BME280;60655;52.182;4.474;2023-04-29T04:06:02;101690.97;;;9.94;89.51
72612;BME280;60655;52.182;4.474;2023-04-29T04:08:03;101666.56;;;9.84;89.79
72612;BME280;60655;52.182;4.474;2023-04-29T04:10:05;101689.69;;;9.90;90.27
72612;BME280;60655;52.182;4.474;2023-04-29T04:12:06;101691.16;;;9.93;90.11
72612;BME280;60655;52.182;4.474;2023-04-29T04:14:07;101689.69;;;9.90;90.63
72612;BME280;60655;52.182;4.474;2023-04-29T04:16:08;101686.66;;;9.93;90.62
72612;BME280;60655;52.182;4.474;2023-04-29T04:18:10;101695.91;;;9.97;90.20
72612;BME280;60655;52.182;4.474;2023-04-29T04:20:11;101697.03;;;9.88;91.12
72612;BME280;60655;52.182;4.474;2023-04-29T04:22:12;101700.69;;;9.87;91.06
72612;BME280;60655;52.182;4.474;2023-04-29T04:24:14;101707.66;;;9.88;91.16
72612;BME280;60655;52.182;4.474;2023-04-29T04:26:14;101707.19;;;9.85;91.06
72612;BME280;60655;52.182;4.474;2023-04-29T04:28:15;101711.06;;;9.82;91.29
72612;BME280;60655;52.182;4.474;2023-04-29T04:30:16;101719.91;;;9.89;90.74
72612;BME280;60655;52.182;4.474;2023-04-29T04:32:17;101722.81;;;9.94;90.60
72612;BME280;60655;52.182;4.474;2023-04-29T04:34:18;101719.16;;;9.95;90.90
72612;BME280;60655;52.182;4.474;2023-04-29T04:36:20;101720.78;;;9.96;90.80
72612;BME280;60655;52.182;4.474;2023-04-29T04:38:21;101734.00;;;9.90;90.99
72612;BME280;60655;52.182;4.474;2023-04-29T04:40:24;101734.75;;;9.83;91.74
72612;BME280;60655;52.182;4.474;2023-04-29T04:42:25;101732.09;;;9.83;91.57
72612;BME280;60655;52.182;4.474;2023-04-29T04:44:26;101733.06;;;9.97;91.27
72612;BME280;60655;52.182;4.474;2023-04-29T04:46:27;101725.03;;;9.91;91.34
72612;BME280;60655;52.182;4.474;2023-04-29T04:48:28;101739.75;;;9.93;91.02
72612;BME280;60655;52.182;4.474;2023-04-29T04:50:29;101742.84;;;9.75;92.13
72612;BME280;60655;52.182;4.474;2023-04-29T04:52:30;101753.13;;;9.64;92.49
72612;BME280;60655;52.182;4.474;2023-04-29T04:54:31;101742.91;;;9.82;91.32
72612;BME280;60655;52.182;4.474;2023-04-29T04:56:32;101756.50;;;9.94;91.05
72612;BME280;60655;52.182;4.474;2023-04-29T04:58:34;101753.41;;;9.90;91.20
72612;BME280;60655;52.182;4.474;2023-04-29T05:00:35;101750.97;;;10.10;90.30
72612;BME280;60655;52.182;4.474;2023-04-29T05:02:36;101758.59;;;9.98;90.47
72612;BME280;60655;52.182;4.474;2023-04-29T05:04:37;101761.63;;;9.95;90.61
72612;BME280;60655;52.182;4.474;2023-04-29T05:06:38;101752.75;;;9.88;90.01
72612;BME280;60655;52.182;4.474;2023-04-29T05:08:39;101760.97;;;9.93;89.80
72612;BME280;60655;52.182;4.474;2023-04-29T05:10:40;101769.41;;;9.97;89.83
72612;BME280;60655;52.182;4.474;2023-04-29T05:12:40;101766.81;;;10.03;89.39
72612;BME280;60655;52.182;4.474;2023-04-29T05:14:41;101771.16;;;9.90;90.30
72612;BME280;60655;52.182;4.474;2023-04-29T05:16:42;101770.75;;;10.07;90.09
72612;BME280;60655;52.182;4.474;2023-04-29T05:18:46;101774.03;;;10.09;89.27
72612;BME280;60655;52.182;4.474;2023-04-29T05:20:47;101778.25;;;10.04;89.31
72612;BME280;60655;52.182;4.474;2023-04-29T05:22:47;101782.41;;;10.13;89.07
72612;BME280;60655;52.182;4.474;2023-04-29T05:24:48;101783.59;;;10.25;87.54
72612;BME280;60655;52.182;4.474;2023-04-29T05:26:51;101787.53;;;10.14;88.17
72612;BME280;60655;52.182;4.474;2023-04-29T05:28:53;101782.59;;;10.11;88.07
72612;BME280;60655;52.182;4.474;2023-04-29T05:30:55;101791.63;;;10.32;87.72
72612;BME280;60655;52.182;4.474;2023-04-29T05:32:56;101797.31;;;10.29;87.05
72612;BME280;60655;52.182;4.474;2023-04-29T05:34:57;101787.78;;;10.41;87.07
72612;BME280;60655;52.182;4.474;2023-04-29T05:36:58;101798.75;;;10.31;86.42
72612;BME280;60655;52.182;4.474;2023-04-29T05:38:58;101800.97;;;10.28;85.48
72612;BME280;60655;52.182;4.474;2023-04-29T05:40:59;101804.19;;;10.23;85.81
72612;BME280;60655;52.182;4.474;2023-04-29T05:43:01;101803.09;;;10.18;85.64
72612;BME280;60655;52.182;4.474;2023-04-29T05:45:02;101809.97;;;10.12;85.03
72612;BME280;60655;52.182;4.474;2023-04-29T05:47:03;101802.44;;;10.30;84.35
72612;BME280;60655;52.182;4.474;2023-04-29T05:49:04;101804.44;;;10.49;83.96
72612;BME280;60655;52.182;4.474;2023-04-29T05:51:05;101811.47;;;10.36;83.52
72612;BME280;60655;52.182;4.474;2023-04-29T05:53:06;101810.19;;;10.53;84.02
72612;BME280;60655;52.182;4.474;2023-04-29T05:55:07;101813.91;;;10.59;83.64
72612;BME280;60655;52.182;4.474;2023-04-29T05:57:08;101819.91;;;10.67;83.35
72612;BME280;60655;52.182;4.474;2023-04-29T05:59:09;101820.00;;;10.53;83.91
72612;BME280;60655;52.182;4.474;2023-04-29T06:01:10;101828.47;;;10.41;85.16
72612;BME280;60655;52.182;4.474;2023-04-29T06:03:11;101839.09;;;10.41;85.82
72612;BME280;60655;52.182;4.474;2023-04-29T06:05:12;101840.16;;;10.47;86.39
72612;BME280;60655;52.182;4.474;2023-04-29T06:07:14;101846.88;;;10.43;86.59
72612;BME280;60655;52.182;4.474;2023-04-29T06:09:17;101846.56;;;10.31;87.03
72612;BME280;60655;52.182;4.474;2023-04-29T06:11:18;101849.09;;;10.39;86.79
72612;BME280;60655;52.182;4.474;2023-04-29T06:13:19;101842.28;;;10.15;87.60
72612;BME280;60655;52.182;4.474;2023-04-29T06:15:20;101856.38;;;10.31;86.81
72612;BME280;60655;52.182;4.474;2023-04-29T06:17:21;101854.84;;;10.43;86.94
72612;BME280;60655;52.182;4.474;2023-04-29T06:19:22;101855.03;;;10.63;85.88
72612;BME280;60655;52.182;4.474;2023-04-29T06:21:25;101856.44;;;10.59;84.46
72612;BME280;60655;52.182;4.474;2023-04-29T06:23:27;101857.13;;;10.67;83.61
72612;BME280;60655;52.182;4.474;2023-04-29T06:25:28;101860.88;;;10.79;83.09
72612;BME280;60655;52.182;4.474;2023-04-29T06:27:29;101862.28;;;10.75;82.96
72612;BME280;60655;52.182;4.474;2023-04-29T06:29:30;101865.88;;;10.89;82.17
72612;BME280;60655;52.182;4.474;2023-04-29T06:31:31;101869.16;;;10.91;81.23
72612;BME280;60655;52.182;4.474;2023-04-29T06:33:32;101872.03;;;10.90;82.03
72612;BME280;60655;52.182;4.474;2023-04-29T06:35:38;101868.63;;;11.02;80.09
72612;BME280;60655;52.182;4.474;2023-04-29T06:37:39;101871.03;;;10.97;79.86
72612;BME280;60655;52.182;4.474;2023-04-29T06:39:40;101866.31;;;10.93;79.19
72612;BME280;60655;52.182;4.474;2023-04-29T06:41:41;101871.59;;;10.86;79.44
72612;BME280;60655;52.182;4.474;2023-04-29T06:43:42;101875.63;;;10.82;79.76
72612;BME280;60655;52.182;4.474;2023-04-29T06:45:46;101879.94;;;10.83;80.37
72612;BME280;60655;52.182;4.474;2023-04-29T06:47:47;101889.22;;;10.94;80.55
72612;BME280;60655;52.182;4.474;2023-04-29T06:49:48;101891.53;;;11.31;79.34
72612;BME280;60655;52.182;4.474;2023-04-29T06:51:49;101896.59;;;11.54;77.36
72612;BME280;60655;52.182;4.474;2023-04-29T06:53:50;101898.16;;;11.42;78.15
72612;BME280;60655;52.182;4.474;2023-04-29T06:55:51;101903.34;;;11.50;77.61
72612;BME280;60655;52.182;4.474;2023-04-29T06:57:52;101897.78;;;11.79;78.01
72612;BME280;60655;52.182;4.474;2023-04-29T06:59:53;101914.13;;;11.42;78.48
72612;BME280;60655;52.182;4.474;2023-04-29T07:01:54;101910.84;;;11.40;79.43
72612;BME280;60655;52.182;4.474;2023-04-29T07:03:55;101911.81;;;11.04;80.83
72612;BME280;60655;52.182;4.474;2023-04-29T07:05:56;101919.09;;;10.74;81.85
72612;BME280;60655;52.182;4.474;2023-04-29T07:07:57;101922.22;;;10.78;81.06
72612;BME280;60655;52.182;4.474;2023-04-29T07:09:58;101924.13;;;10.84;82.21
72612;BME280;60655;52.182;4.474;2023-04-29T07:12:00;101921.41;;;11.05;80.68
72612;BME280;60655;52.182;4.474;2023-04-29T07:14:02;101923.13;;;11.13;82.20
72612;BME280;60655;52.182;4.474;2023-04-29T07:16:03;101917.50;;;11.64;79.94
72612;BME280;60655;52.182;4.474;2023-04-29T07:18:04;101925.59;;;11.42;79.30
72612;BME280;60655;52.182;4.474;2023-04-29T07:20:06;101923.44;;;11.25;78.99
72612;BME280;60655;52.182;4.474;2023-04-29T07:22:07;101933.91;;;11.67;77.46
72612;BME280;60655;52.182;4.474;2023-04-29T07:24:08;101936.22;;;11.42;78.68
72612;BME280;60655;52.182;4.474;2023-04-29T07:26:11;101940.06;;;11.68;78.57
72612;BME280;60655;52.182;4.474;2023-04-29T07:28:12;101941.88;;;11.95;77.29
72612;BME280;60655;52.182;4.474;2023-04-29T07:30:13;101943.94;;;12.00;77.07
72612;BME280;60655;52.182;4.474;2023-04-29T07:32:15;101946.66;;;12.06;75.35
72612;BME280;60655;52.182;4.474;2023-04-29T07:34:16;101958.25;;;11.92;74.84
72612;BME280;60655;52.182;4.474;2023-04-29T07:36:17;101958.94;;;12.07;74.98
72612;BME280;60655;52.182;4.474;2023-04-29T07:38:18;101955.22;;;12.02;74.99
72612;BME280;60655;52.182;4.474;2023-04-29T07:40:19;101962.56;;;11.93;74.36
72612;BME280;60655;52.182;4.474;2023-04-29T07:42:20;101964.44;;;11.99;75.31
72612;BME280;60655;52.182;4.474;2023-04-29T07:44:21;101957.00;;;11.88;75.65
72612;BME280;60655;52.182;4.474;2023-04-29T07:46:22;101956.34;;;11.79;73.96
72612;BME280;60655;52.182;4.474;2023-04-29T07:48:23;101954.13;;;11.83;74.21
72612;BME280;60655;52.182;4.474;2023-04-29T07:50:24;101969.06;;;11.84;74.56
72612;BME280;60655;52.182;4.474;2023-04-29T07:52:25;101958.22;;;11.86;74.92
72612;BME280;60655;52.182;4.474;2023-04-29T07:54:26;101963.72;;;11.77;74.03
72612;BME280;60655;52.182;4.474;2023-04-29T07:56:27;101957.00;;;11.88;74.11
72612;BME280;60655;52.182;4.474;2023-04-29T07:58:28;101964.50;;;12.12;73.67
72612;BME280;60655;52.182;4.474;2023-04-29T08:00:29;101958.75;;;12.15;71.29
72612;BME280;60655;52.182;4.474;2023-04-29T08:02:31;101968.59;;;11.46;74.02
72612;BME280;60655;52.182;4.474;2023-04-29T08:04:32;101967.94;;;11.72;74.20
72612;BME280;60655;52.182;4.474;2023-04-29T08:06:33;101965.88;;;12.02;73.08
72612;BME280;60655;52.182;4.474;2023-04-29T08:08:35;101975.81;;;12.28;71.62
72612;BME280;60655;52.182;4.474;2023-04-29T08:10:37;101968.19;;;12.11;70.83
72612;BME280;60655;52.182;4.474;2023-04-29T08:12:40;101975.94;;;12.13;70.38
72612;BME280;60655;52.182;4.474;2023-04-29T08:14:41;101972.53;;;11.84;71.62
72612;BME280;60655;52.182;4.474;2023-04-29T08:16:42;101974.19;;;11.86;71.45
72612;BME280;60655;52.182;4.474;2023-04-29T08:18:43;101979.09;;;11.82;72.59
72612;BME280;60655;52.182;4.474;2023-04-29T08:20:46;101983.34;;;12.17;70.70
72612;BME280;60655;52.182;4.474;2023-04-29T08:22:47;101975.53;;;12.03;71.28
72612;BME280;60655;52.182;4.474;2023-04-29T08:24:48;101975.78;;;12.21;69.85
72612;BME280;60655;52.182;4.474;2023-04-29T08:26:49;101973.72;;;12.10;69.44
72612;BME280;60655;52.182;4.474;2023-04-29T08:28:51;101985.63;;;12.21;70.10
72612;BME280;60655;52.182;4.474;2023-04-29T08:30:52;101978.25;;;12.23;69.34
72612;BME280;60655;52.182;4.474;2023-04-29T08:32:53;101982.06;;;12.00;70.82
72612;BME280;60655;52.182;4.474;2023-04-29T08:34:54;101984.97;;;12.05;70.84
72612;BME280;60655;52.182;4.474;2023-04-29T08:36:56;101973.59;;;12.31;69.71
72612;BME280;60655;52.182;4.474;2023-04-29T08:38:57;101974.75;;;12.15;70.67
72612;BME280;60655;52.182;4.474;2023-04-29T08:40:58;101985.84;;;12.26;69.88
72612;BME280;60655;52.182;4.474;2023-04-29T08:42:59;101987.03;;;12.16;69.74
72612;BME280;60655;52.182;4.474;2023-04-29T08:45:01;101980.66;;;12.04;70.10
72612;BME280;60655;52.182;4.474;2023-04-29T08:47:03;101988.56;;;12.32;69.70
72612;BME280;60655;52.182;4.474;2023-04-29T08:49:04;101988.91;;;12.23;69.66
72612;BME280;60655;52.182;4.474;2023-04-29T08:51:06;101998.16;;;12.27;69.49
72612;BME280;60655;52.182;4.474;2023-04-29T08:53:12;101996.56;;;12.32;69.28
72612;BME280;60655;52.182;4.474;2023-04-29T08:55:13;101991.75;;;12.14;69.59
72612;BME280;60655;52.182;4.474;2023-04-29T08:57:14;102001.59;;;12.21;69.94
72612;BME280;60655;52.182;4.474;2023-04-29T08:59:16;102003.91;;;12.30;68.88
72612;BME280;60655;52.182;4.474;2023-04-29T09:01:18;102003.25;;;12.22;69.27
72612;BME280;60655;52.182;4.474;2023-04-29T09:03:39;102012.34;;;12.34;69.26
72612;BME280;60655;52.182;4.474;2023-04-29T09:05:44;102004.66;;;12.72;69.53
72612;BME280;60655;52.182;4.474;2023-04-29T09:07:49;102006.31;;;12.79;67.85
72612;BME280;60655;52.182;4.474;2023-04-29T09:09:51;102009.66;;;12.95;67.89
72612;BME280;60655;52.182;4.474;2023-04-29T09:11:53;102005.91;;;12.76;67.79
72612;BME280;60655;52.182;4.474;2023-04-29T09:13:59;102006.94;;;12.81;67.74
72612;BME280;60655;52.182;4.474;2023-04-29T09:16:01;102013.34;;;13.07;67.05
72612;BME280;60655;52.182;4.474;2023-04-29T09:18:02;102008.19;;;13.05;67.70
72612;BME280;60655;52.182;4.474;2023-04-29T09:22:24;102011.06;;;13.04;65.16
72612;BME280;60655;52.182;4.474;2023-04-29T09:24:26;102013.59;;;13.18;65.80
72612;BME280;60655;52.182;4.474;2023-04-29T09:26:39;102015.78;;;13.02;65.96
72612;BME280;60655;52.182;4.474;2023-04-29T09:28:41;102015.59;;;12.90;66.95
72612;BME280;60655;52.182;4.474;2023-04-29T09:30:45;102007.84;;;13.41;65.26
72612;BME280;60655;52.182;4.474;2023-04-29T09:33:06;102010.72;;;13.40;64.80
72612;BME280;60655;52.182;4.474;2023-04-29T09:37:25;102015.81;;;13.68;64.37
72612;BME280;60655;52.182;4.474;2023-04-29T09:39:37;102020.13;;;13.69;63.65
72612;BME280;60655;52.182;4.474;2023-04-29T09:44:05;102014.59;;;13.64;64.40
72612;BME280;60655;52.182;4.474;2023-04-29T09:46:12;102022.59;;;13.57;62.93
72612;BME280;60655;52.182;4.474;2023-04-29T09:48:14;102013.59;;;13.18;64.44
72612;BME280;60655;52.182;4.474;2023-04-29T09:50:15;102023.44;;;13.58;64.09
72612;BME280;60655;52.182;4.474;2023-04-29T09:52:19;102024.88;;;13.40;64.54
72612;BME280;60655;52.182;4.474;2023-04-29T09:54:24;102021.78;;;13.63;63.42
72612;BME280;60655;52.182;4.474;2023-04-29T09:56:25;102012.97;;;13.43;63.82
72612;BME280;60655;52.182;4.474;2023-04-29T09:58:31;102026.13;;;13.44;64.73
72612;BME280;60655;52.182;4.474;2023-04-29T10:00:36;102012.13;;;13.69;63.23
72612;BME280;60655;52.182;4.474;2023-04-29T10:02:41;102024.25;;;13.84;64.08
72612;BME280;60655;52.182;4.474;2023-04-29T10:04:48;102018.22;;;14.09;63.18
72612;BME280;60655;52.182;4.474;2023-04-29T10:06:55;102020.47;;;14.12;61.48
72612;BME280;60655;52.182;4.474;2023-04-29T10:08:56;102028.66;;;14.17;62.65
72612;BME280;60655;52.182;4.474;2023-04-29T10:11:03;102026.66;;;13.99;61.72
72612;BME280;60655;52.182;4.474;2023-04-29T10:13:05;102033.09;;;13.72;62.39
72612;BME280;60655;52.182;4.474;2023-04-29T10:15:25;102025.03;;;13.92;62.46
72612;BME280;60655;52.182;4.474;2023-04-29T10:17:43;102025.66;;;13.87;62.83
72612;BME280;60655;52.182;4.474;2023-04-29T10:19:46;102026.09;;;13.77;63.57
72612;BME280;60655;52.182;4.474;2023-04-29T10:21:52;102023.59;;;13.96;63.45
72612;BME280;60655;52.182;4.474;2023-04-29T10:23:56;102025.69;;;14.45;61.31
72612;BME280;60655;52.182;4.474;2023-04-29T10:25:58;102033.03;;;13.98;61.54
72612;BME280;60655;52.182;4.474;2023-04-29T10:28:02;102029.53;;;14.11;61.47
72612;BME280;60655;52.182;4.474;2023-04-29T10:30:06;102029.84;;;14.41;60.80
72612;BME280;60655;52.182;4.474;2023-04-29T10:32:08;102024.03;;;14.50;59.73
72612;BME280;60655;52.182;4.474;2023-04-29T10:34:12;102037.75;;;14.67;59.14
72612;BME280;60655;52.182;4.474;2023-04-29T10:36:14;102036.19;;;14.91;58.94
72612;BME280;60655;52.182;4.474;2023-04-29T10:38:21;102039.41;;;14.68;60.32
72612;BME280;60655;52.182;4.474;2023-04-29T10:40:30;102029.75;;;14.61;59.32
72612;BME280;60655;52.182;4.474;2023-04-29T10:42:44;102041.38;;;14.22;61.04
72612;BME280;60655;52.182;4.474;2023-04-29T10:45:21;102047.97;;;14.19;59.93
72612;BME280;60655;52.182;4.474;2023-04-29T10:47:22;102045.41;;;13.79;61.54
72612;BME280;60655;52.182;4.474;2023-04-29T10:49:23;102039.97;;;14.19;60.38
72612;BME280;60655;52.182;4.474;2023-04-29T10:51:44;102040.22;;;14.11;60.50
72612;BME280;60655;52.182;4.474;2023-04-29T10:54:20;102044.06;;;14.28;60.41
72612;BME280;60655;52.182;4.474;2023-04-29T10:56:48;102043.84;;;14.30;60.44
72612;BME280;60655;52.182;4.474;2023-04-29T10:58:50;102037.03;;;14.34;60.24
72612;BME280;60655;52.182;4.474;2023-04-29T11:00:51;102036.78;;;14.55;58.94
72612;BME280;60655;52.182;4.474;2023-04-29T11:02:54;102038.31;;;14.76;58.83